Citadel — PBOK — position and weather

sailwx.info

Track history (hours):
 
Tides and Currents Weather Stations Pressure Air Temp Water Temp Dewpoint Dewpoint Depression Visibility Wind Speed Wind Dir Waves Ship Positions

Citadel

Last reported at 2014-Nov-28 05:11 UTC. Time now 2014-Nov-28 17:00 UTC.
Position N 48°05' W 005°11'.

Length 111 m; draft 5.9 m.

Type: Cargo ship. MMSI: 245977000.

Date/timePositionNaut miles runAvg speedWind from/ knotsBaromVisibWave heightAir tempDewpointWater temp
2014-Nov-28 05:11N 48°05' W 005°11'913.6
2014-Nov-28 04:33N 47°59' W 005°03'1313.3
2014-Nov-28 03:33N 47°50' W 004°48'13312.1
2014-Nov-27 16:31N 46°27' W 002°15'1111.8
2014-Nov-27 15:33N 46°20' W 002°02'1211.8
2014-Nov-27 14:33N 46°14' W 001°47'1211.9
2014-Nov-27 13:33N 46°07' W 001°33'1211.6
2014-Nov-27 12:33N 46°06' W 001°16'3 3.4
2014-Nov-27 11:32N 46°09' W 001°14'0 0.0
2014-Nov-27 10:32N 46°09' W 001°14'0 0.0
2014-Nov-27 09:31N 46°09' W 001°14'0 0.0
2014-Nov-27 08:31N 46°09' W 001°14'0 0.0
2014-Nov-27 07:31N 46°09' W 001°14'0 0.0
2014-Nov-27 06:33N 46°09' W 001°14'0 0.0
2014-Nov-27 05:33N 46°09' W 001°14'0 0.0
2014-Nov-27 04:32N 46°09' W 001°14'0 0.0
2014-Nov-27 03:31N 46°09' W 001°14'0 0.0
2014-Nov-27 02:31N 46°09' W 001°14'0 0.0
2014-Nov-27 01:33N 46°09' W 001°14'0 0.0
2014-Nov-27 00:33N 46°09' W 001°14'0 0.0
2014-Nov-26 23:32N 46°09' W 001°14'0 0.0
2014-Nov-26 22:32N 46°09' W 001°14'0 0.0
2014-Nov-26 21:32N 46°09' W 001°14'0 0.0
2014-Nov-26 20:31N 46°09' W 001°14'0 0.0
2014-Nov-26 19:31N 46°09' W 001°14'0 0.0
2014-Nov-26 18:33N 46°09' W 001°14'0 0.0
2014-Nov-26 17:33N 46°09' W 001°14'0 0.0
2014-Nov-26 16:32N 46°09' W 001°14'0 0.0
2014-Nov-26 15:32N 46°09' W 001°14'0 0.0
2014-Nov-26 14:32N 46°09' W 001°14'0 0.0
2014-Nov-26 13:31N 46°09' W 001°14'0 0.0
2014-Nov-26 12:31N 46°09' W 001°14'0 0.0
2014-Nov-26 11:33N 46°09' W 001°14'0 0.0
2014-Nov-26 10:33N 46°09' W 001°14'0 0.0
2014-Nov-26 09:32N 46°09' W 001°14'0 0.0
2014-Nov-26 08:32N 46°09' W 001°14'0 0.0
2014-Nov-26 07:32N 46°09' W 001°14'0 0.0
2014-Nov-26 06:31N 46°09' W 001°14'0 0.0
2014-Nov-26 05:31N 46°09' W 001°14'0 0.0
2014-Nov-26 04:33N 46°09' W 001°14'0 0.0
2014-Nov-26 03:34N 46°09' W 001°14'0 0.0
2014-Nov-26 02:33N 46°09' W 001°14'0 0.0
2014-Nov-26 01:33N 46°09' W 001°14'0 0.0
2014-Nov-26 00:33N 46°09' W 001°14'0 0.0
2014-Nov-25 23:34N 46°09' W 001°14'0 0.0
2014-Nov-25 22:33N 46°09' W 001°14'0 0.0
2014-Nov-25 21:33N 46°09' W 001°14'0 0.0
2014-Nov-25 20:33N 46°09' W 001°14'5 4.7
2014-Nov-25 19:33N 46°05' W 001°15'0 0.0
2014-Nov-25 18:32N 46°05' W 001°15'0 0.0
2014-Nov-25 17:32N 46°05' W 001°15'0 0.0
2014-Nov-25 16:31N 46°05' W 001°15'0 0.0
2014-Nov-25 15:31N 46°05' W 001°15'0 0.0
2014-Nov-25 14:31N 46°05' W 001°15'0 0.0
2014-Nov-25 13:33N 46°05' W 001°15'0 0.0
2014-Nov-25 12:33N 46°05' W 001°15'0 0.0
2014-Nov-25 11:32N 46°05' W 001°15'0 0.0
2014-Nov-25 10:32N 46°05' W 001°15'0 0.0
2014-Nov-25 09:31N 46°05' W 001°15'0 0.0
2014-Nov-25 08:34N 46°05' W 001°15'8 7.7
2014-Nov-25 07:33N 46°06' W 001°25'1111.2
2014-Nov-25 06:33N 46°08' W 001°41'1212.1
2014-Nov-25 05:33N 46°16' W 001°54'1212.3
2014-Nov-25 04:33N 46°25' W 002°06'  
2014-Nov-21 14:19N 50°29' E 000°04'1013.3
2014-Nov-21 13:33N 50°32' E 000°20'1312.7
2014-Nov-21 12:33N 50°36' E 000°39'1211.9
2014-Nov-21 11:33N 50°43' E 000°54'1210.7
2014-Nov-21 10:28N 50°50' E 001°09'910.3
2014-Nov-21 09:34N 50°56' E 001°20'1111.5
2014-Nov-21 08:33N 51°04' E 001°33'1010.2
2014-Nov-21 07:34N 51°02' E 001°49'1312.4
2014-Nov-21 06:32N 51°03' E 002°09'8 6.1
2014-Nov-21 05:16N 51°03' E 002°21'0 0.5
2014-Nov-21 04:34N 51°03' E 002°21'0 0.0
2014-Nov-21 03:33N 51°03' E 002°21'0 0.0
2014-Nov-21 02:17N 51°03' E 002°21'0 0.0
2014-Nov-21 01:23N 51°03' E 002°21'0 0.0
2014-Nov-21 00:28N 51°03' E 002°21'0 0.0
2014-Nov-20 22:18N 51°03' E 002°21'0 0.0
2014-Nov-20 21:33N 51°03' E 002°21'0 0.0
2014-Nov-20 19:08N 51°03' E 002°21'0 0.0
2014-Nov-20 17:28N 51°03' E 002°21'0 0.0
2014-Nov-20 15:24N 51°03' E 002°21'0 0.0
2014-Nov-20 13:06N 51°03' E 002°21'0 0.0
2014-Nov-20 11:21N 51°03' E 002°21'0 0.0
2014-Nov-20 09:28N 51°03' E 002°21'0 0.0
2014-Nov-20 07:09N 51°03' E 002°21'0 0.0
2014-Nov-20 06:08N 51°03' E 002°21'0 0.0
2014-Nov-20 05:17N 51°03' E 002°21'0 0.0
2014-Nov-20 03:25N 51°03' E 002°21'0 0.0
2014-Nov-20 02:22N 51°03' E 002°21'0 0.0
2014-Nov-20 01:24N 51°03' E 002°21'0 0.0
2014-Nov-19 21:17N 51°03' E 002°21'0 0.0
2014-Nov-19 20:28N 51°03' E 002°21'0 0.0
2014-Nov-19 19:22N 51°03' E 002°21'0 0.0
2014-Nov-19 18:33N 51°03' E 002°21'0 0.0
2014-Nov-19 17:33N 51°03' E 002°21'0 0.0
2014-Nov-19 15:26N 51°03' E 002°21'0 0.0
2014-Nov-19 12:12N 51°03' E 002°21'1 1.4
2014-Nov-19 11:32N 51°03' E 002°21'8 6.7
2014-Nov-19 10:17N 51°03' E 002°07'1114.6
2014-Nov-19 09:33N 51°03' E 001°50'1211.7
2014-Nov-19 08:34N 51°11' E 001°37'1212.3
2014-Nov-19 07:34N 51°23' E 001°43'1413.7
2014-Nov-19 06:33N 51°37' E 001°45'1414.1
2014-Nov-19 05:33N 51°51' E 001°43'1414.1
2014-Nov-19 04:33N 52°05' E 001°47'1413.6
2014-Nov-19 03:33N 52°18' E 001°50'1211.7
2014-Nov-19 02:33N 52°30' E 001°53'1110.5
2014-Nov-19 01:33N 52°40' E 001°50'1111.4
2014-Nov-19 00:33N 52°50' E 001°39'1111.1
2014-Nov-18 23:33N 52°59' E 001°30'1111.3
2014-Nov-18 22:33N 53°09' E 001°20'3511.5
2014-Nov-18 19:32N 53°35' E 000°41'1111.5
2014-Nov-18 18:33N 53°43' E 000°28'1211.6
2014-Nov-18 17:34N 53°53' E 000°17'1211.9
2014-Nov-18 16:33N 54°02' E 000°05'1212.5
2014-Nov-18 15:33N 54°13' W 000°06'1313.1
2014-Nov-18 14:33N 54°23' W 000°21'1313.4
2014-Nov-18 13:33N 54°32' W 000°37'1312.7
2014-Nov-18 12:33N 54°41' W 000°54'1313.0
2014-Nov-18 11:33N 54°48' W 001°12'5 4.7
2014-Nov-18 10:33N 54°50' W 001°20'0 0.0
2014-Nov-18 09:12N 54°50' W 001°20'0 0.0
2014-Nov-18 08:23N 54°50' W 001°20'0 0.0
2014-Nov-18 07:32N 54°50' W 001°20'0 0.0
2014-Nov-18 06:26N 54°50' W 001°20'0 0.0
2014-Nov-18 05:23N 54°50' W 001°20'  
Track history (hours):
 
Tides and Currents Weather Stations Pressure Air Temp Water Temp Dewpoint Dewpoint Depression Visibility Wind Speed Wind Dir Waves Ship Positions

Citadel

Last reported at 2014-Nov-28 05:11 UTC. Time now 2014-Nov-28 17:00 UTC.
Position N 48°05' W 005°11'.

Length 111 m; draft 5.9 m.

Type: Cargo ship. MMSI: 245977000.

Date/timePositionNaut miles runAvg speedWind from/ knotsBaromVisibWave heightAir tempDewpointWater temp
2014-Nov-28 05:11N 48°05' W 005°11'913.6
2014-Nov-28 04:33N 47°59' W 005°03'1313.3
2014-Nov-28 03:33N 47°50' W 004°48'13312.1
2014-Nov-27 16:31N 46°27' W 002°15'1111.8
2014-Nov-27 15:33N 46°20' W 002°02'1211.8
2014-Nov-27 14:33N 46°14' W 001°47'1211.9
2014-Nov-27 13:33N 46°07' W 001°33'1211.6
2014-Nov-27 12:33N 46°06' W 001°16'3 3.4
2014-Nov-27 11:32N 46°09' W 001°14'0 0.0
2014-Nov-27 10:32N 46°09' W 001°14'0 0.0
2014-Nov-27 09:31N 46°09' W 001°14'0 0.0
2014-Nov-27 08:31N 46°09' W 001°14'0 0.0
2014-Nov-27 07:31N 46°09' W 001°14'0 0.0
2014-Nov-27 06:33N 46°09' W 001°14'0 0.0
2014-Nov-27 05:33N 46°09' W 001°14'0 0.0
2014-Nov-27 04:32N 46°09' W 001°14'0 0.0
2014-Nov-27 03:31N 46°09' W 001°14'0 0.0
2014-Nov-27 02:31N 46°09' W 001°14'0 0.0
2014-Nov-27 01:33N 46°09' W 001°14'0 0.0
2014-Nov-27 00:33N 46°09' W 001°14'0 0.0
2014-Nov-26 23:32N 46°09' W 001°14'0 0.0
2014-Nov-26 22:32N 46°09' W 001°14'0 0.0
2014-Nov-26 21:32N 46°09' W 001°14'0 0.0
2014-Nov-26 20:31N 46°09' W 001°14'0 0.0
2014-Nov-26 19:31N 46°09' W 001°14'0 0.0
2014-Nov-26 18:33N 46°09' W 001°14'0 0.0
2014-Nov-26 17:33N 46°09' W 001°14'0 0.0
2014-Nov-26 16:32N 46°09' W 001°14'0 0.0
2014-Nov-26 15:32N 46°09' W 001°14'0 0.0
2014-Nov-26 14:32N 46°09' W 001°14'0 0.0
2014-Nov-26 13:31N 46°09' W 001°14'0 0.0
2014-Nov-26 12:31N 46°09' W 001°14'0 0.0
2014-Nov-26 11:33N 46°09' W 001°14'0 0.0
2014-Nov-26 10:33N 46°09' W 001°14'0 0.0
2014-Nov-26 09:32N 46°09' W 001°14'0 0.0
2014-Nov-26 08:32N 46°09' W 001°14'0 0.0
2014-Nov-26 07:32N 46°09' W 001°14'0 0.0
2014-Nov-26 06:31N 46°09' W 001°14'0 0.0
2014-Nov-26 05:31N 46°09' W 001°14'0 0.0
2014-Nov-26 04:33N 46°09' W 001°14'0 0.0
2014-Nov-26 03:34N 46°09' W 001°14'0 0.0
2014-Nov-26 02:33N 46°09' W 001°14'0 0.0
2014-Nov-26 01:33N 46°09' W 001°14'0 0.0
2014-Nov-26 00:33N 46°09' W 001°14'0 0.0
2014-Nov-25 23:34N 46°09' W 001°14'0 0.0
2014-Nov-25 22:33N 46°09' W 001°14'0 0.0
2014-Nov-25 21:33N 46°09' W 001°14'0 0.0
2014-Nov-25 20:33N 46°09' W 001°14'5 4.7
2014-Nov-25 19:33N 46°05' W 001°15'0 0.0
2014-Nov-25 18:32N 46°05' W 001°15'0 0.0
2014-Nov-25 17:32N 46°05' W 001°15'0 0.0
2014-Nov-25 16:31N 46°05' W 001°15'0 0.0
2014-Nov-25 15:31N 46°05' W 001°15'0 0.0
2014-Nov-25 14:31N 46°05' W 001°15'0 0.0
2014-Nov-25 13:33N 46°05' W 001°15'0 0.0
2014-Nov-25 12:33N 46°05' W 001°15'0 0.0
2014-Nov-25 11:32N 46°05' W 001°15'0 0.0
2014-Nov-25 10:32N 46°05' W 001°15'0 0.0
2014-Nov-25 09:31N 46°05' W 001°15'0 0.0
2014-Nov-25 08:34N 46°05' W 001°15'8 7.7
2014-Nov-25 07:33N 46°06' W 001°25'1111.2
2014-Nov-25 06:33N 46°08' W 001°41'1212.1
2014-Nov-25 05:33N 46°16' W 001°54'1212.3
2014-Nov-25 04:33N 46°25' W 002°06'  
2014-Nov-21 14:19N 50°29' E 000°04'1013.3
2014-Nov-21 13:33N 50°32' E 000°20'1312.7
2014-Nov-21 12:33N 50°36' E 000°39'1211.9
2014-Nov-21 11:33N 50°43' E 000°54'1210.7
2014-Nov-21 10:28N 50°50' E 001°09'910.3
2014-Nov-21 09:34N 50°56' E 001°20'1111.5
2014-Nov-21 08:33N 51°04' E 001°33'1010.2
2014-Nov-21 07:34N 51°02' E 001°49'1312.4
2014-Nov-21 06:32N 51°03' E 002°09'8 6.1
2014-Nov-21 05:16N 51°03' E 002°21'0 0.5
2014-Nov-21 04:34N 51°03' E 002°21'0 0.0
2014-Nov-21 03:33N 51°03' E 002°21'0 0.0
2014-Nov-21 02:17N 51°03' E 002°21'0 0.0
2014-Nov-21 01:23N 51°03' E 002°21'0 0.0
2014-Nov-21 00:28N 51°03' E 002°21'0 0.0
2014-Nov-20 22:18N 51°03' E 002°21'0 0.0
2014-Nov-20 21:33N 51°03' E 002°21'0 0.0
2014-Nov-20 19:08N 51°03' E 002°21'0 0.0
2014-Nov-20 17:28N 51°03' E 002°21'0 0.0
2014-Nov-20 15:24N 51°03' E 002°21'0 0.0
2014-Nov-20 13:06N 51°03' E 002°21'0 0.0
2014-Nov-20 11:21N 51°03' E 002°21'0 0.0
2014-Nov-20 09:28N 51°03' E 002°21'0 0.0
2014-Nov-20 07:09N 51°03' E 002°21'0 0.0
2014-Nov-20 06:08N 51°03' E 002°21'0 0.0
2014-Nov-20 05:17N 51°03' E 002°21'0 0.0
2014-Nov-20 03:25N 51°03' E 002°21'0 0.0
2014-Nov-20 02:22N 51°03' E 002°21'0 0.0
2014-Nov-20 01:24N 51°03' E 002°21'0 0.0
2014-Nov-19 21:17N 51°03' E 002°21'0 0.0
2014-Nov-19 20:28N 51°03' E 002°21'0 0.0
2014-Nov-19 19:22N 51°03' E 002°21'0 0.0
2014-Nov-19 18:33N 51°03' E 002°21'0 0.0
2014-Nov-19 17:33N 51°03' E 002°21'0 0.0
2014-Nov-19 15:26N 51°03' E 002°21'0 0.0
2014-Nov-19 12:12N 51°03' E 002°21'1 1.4
2014-Nov-19 11:32N 51°03' E 002°21'8 6.7
2014-Nov-19 10:17N 51°03' E 002°07'1114.6
2014-Nov-19 09:33N 51°03' E 001°50'1211.7
2014-Nov-19 08:34N 51°11' E 001°37'1212.3
2014-Nov-19 07:34N 51°23' E 001°43'1413.7
2014-Nov-19 06:33N 51°37' E 001°45'1414.1
2014-Nov-19 05:33N 51°51' E 001°43'1414.1
2014-Nov-19 04:33N 52°05' E 001°47'1413.6
2014-Nov-19 03:33N 52°18' E 001°50'1211.7
2014-Nov-19 02:33N 52°30' E 001°53'1110.5
2014-Nov-19 01:33N 52°40' E 001°50'1111.4
2014-Nov-19 00:33N 52°50' E 001°39'1111.1
2014-Nov-18 23:33N 52°59' E 001°30'1111.3
2014-Nov-18 22:33N 53°09' E 001°20'3511.5
2014-Nov-18 19:32N 53°35' E 000°41'1111.5
2014-Nov-18 18:33N 53°43' E 000°28'1211.6
2014-Nov-18 17:34N 53°53' E 000°17'1211.9
2014-Nov-18 16:33N 54°02' E 000°05'1212.5
2014-Nov-18 15:33N 54°13' W 000°06'1313.1
2014-Nov-18 14:33N 54°23' W 000°21'1313.4
2014-Nov-18 13:33N 54°32' W 000°37'1312.7
2014-Nov-18 12:33N 54°41' W 000°54'1313.0
2014-Nov-18 11:33N 54°48' W 001°12'5 4.7
2014-Nov-18 10:33N 54°50' W 001°20'0 0.0
2014-Nov-18 09:12N 54°50' W 001°20'0 0.0
2014-Nov-18 08:23N 54°50' W 001°20'0 0.0
2014-Nov-18 07:32N 54°50' W 001°20'0 0.0
2014-Nov-18 06:26N 54°50' W 001°20'0 0.0
2014-Nov-18 05:23N 54°50' W 001°20'  

Dump ship's entire track history